createdAt,value
2023-02-12T00:01:25.642Z,4.91
2023-02-12T00:03:52.496Z,4.94
2023-02-12T00:06:19.537Z,4.96
2023-02-12T00:08:50.328Z,4.94
2023-02-12T00:11:19.649Z,4.90
2023-02-12T00:13:47.056Z,4.94
2023-02-12T00:16:16.822Z,4.92
2023-02-12T00:18:44.825Z,4.89
2023-02-12T00:21:12.642Z,4.88
2023-02-12T00:23:41.160Z,4.88
2023-02-12T00:26:10.224Z,4.85
2023-02-12T00:28:37.188Z,4.81
2023-02-12T00:31:06.018Z,4.76
2023-02-12T00:33:32.985Z,4.77
2023-02-12T00:35:59.914Z,4.81
2023-02-12T00:38:27.105Z,4.83
2023-02-12T00:40:54.141Z,4.86
2023-02-12T00:43:20.911Z,4.86
2023-02-12T00:45:48.414Z,4.84
2023-02-12T00:48:15.893Z,4.83
2023-02-12T00:50:46.528Z,4.82
2023-02-12T00:53:13.387Z,4.79
2023-02-12T00:55:40.742Z,4.82
2023-02-12T00:58:08.013Z,4.86
2023-02-12T01:00:35.448Z,4.85
2023-02-12T01:03:04.410Z,4.89
2023-02-12T01:05:31.744Z,4.89
2023-02-12T01:07:58.537Z,4.91
2023-02-12T01:10:25.713Z,4.93
2023-02-12T01:12:52.517Z,4.86
2023-02-12T01:15:20.090Z,4.83
2023-02-12T01:17:46.981Z,4.81
2023-02-12T01:20:18.618Z,4.80
2023-02-12T01:22:46.091Z,4.81
2023-02-12T01:25:12.904Z,4.85
2023-02-12T01:27:40.157Z,4.86
2023-02-12T01:30:11.210Z,4.88
2023-02-12T01:32:38.263Z,4.91
2023-02-12T01:35:07.873Z,4.92
2023-02-12T01:37:38.649Z,4.87
2023-02-12T01:40:06.995Z,4.82
2023-02-12T01:42:33.947Z,4.80
2023-02-12T01:45:13.063Z,4.78
2023-02-12T01:47:44.985Z,4.77
2023-02-12T01:50:15.176Z,4.81
2023-02-12T01:52:46.786Z,4.79
2023-02-12T01:55:14.927Z,4.78
2023-02-12T01:57:45.580Z,4.72
2023-02-12T02:00:18.553Z,4.74
2023-02-12T02:02:51.414Z,4.77
2023-02-12T02:05:24.993Z,4.75
2023-02-12T02:07:53.608Z,4.76
2023-02-12T02:10:20.527Z,4.76
2023-02-12T02:13:05.961Z,4.73
2023-02-12T02:15:33.225Z,4.70
2023-02-12T02:18:28.948Z,4.67
2023-02-12T02:21:10.838Z,4.67
2023-02-12T02:23:54.703Z,4.66
2023-02-12T02:26:44.209Z,4.67
2023-02-12T02:29:43.240Z,4.68
2023-02-12T02:32:19.869Z,4.68
2023-02-12T02:35:04.598Z,4.68
2023-02-12T02:37:56.708Z,4.77
2023-02-12T02:40:29.517Z,4.76
2023-02-12T02:43:16.876Z,4.81
2023-02-12T02:45:48.721Z,4.82
2023-02-12T02:48:24.344Z,4.83
2023-02-12T02:51:01.446Z,4.80
2023-02-12T02:53:35.123Z,4.77
2023-02-12T02:56:06.568Z,4.80
2023-02-12T02:58:41.877Z,4.82
2023-02-12T03:01:19.149Z,4.79
2023-02-12T03:03:54.825Z,4.77
2023-02-12T03:06:30.512Z,4.77
2023-02-12T03:09:02.387Z,4.76
2023-02-12T03:11:33.104Z,4.78
2023-02-12T03:14:11.181Z,4.82
2023-02-12T03:16:46.698Z,4.86
2023-02-12T03:19:20.392Z,4.87
2023-02-12T03:21:55.017Z,4.85
2023-02-12T03:24:36.733Z,4.82
2023-02-12T03:27:10.953Z,4.80
2023-02-12T03:29:38.123Z,4.83
2023-02-12T03:32:20.298Z,4.86
2023-02-12T03:34:59.388Z,4.86
2023-02-12T03:37:33.865Z,4.86
2023-02-12T03:40:20.858Z,4.79
2023-02-12T03:43:04.534Z,4.74
2023-02-12T03:45:49.902Z,4.71
2023-02-12T03:48:28.892Z,4.73
2023-02-12T03:51:14.935Z,4.75
2023-02-12T03:53:42.795Z,4.71
2023-02-12T03:56:16.201Z,4.70
2023-02-12T03:58:44.099Z,4.76
2023-02-12T04:01:12.149Z,4.78
2023-02-12T04:03:39.119Z,4.75
2023-02-12T04:06:18.037Z,4.74
2023-02-12T04:08:47.606Z,4.78
2023-02-12T04:11:43.462Z,4.87
2023-02-12T04:14:26.892Z,4.92
2023-02-12T04:17:06.246Z,4.95
2023-02-12T04:20:15.525Z,4.93
2023-02-12T04:23:09.864Z,4.90
2023-02-12T04:26:02.345Z,4.82
2023-02-12T04:28:35.077Z,4.78
2023-02-12T04:31:05.000Z,4.75
2023-02-12T04:33:47.233Z,4.74
2023-02-12T04:36:19.728Z,4.79
2023-02-12T04:39:12.141Z,4.80
2023-02-12T04:41:39.603Z,4.82
2023-02-12T04:44:17.760Z,4.86
2023-02-12T04:46:44.631Z,4.88
2023-02-12T04:49:16.613Z,4.85
2023-02-12T04:51:44.324Z,4.83
2023-02-12T04:54:11.003Z,4.85
2023-02-12T04:56:37.888Z,4.86
2023-02-12T04:59:05.215Z,4.88
2023-02-12T05:01:34.840Z,4.92
2023-02-12T05:04:01.820Z,4.89
2023-02-12T05:06:30.302Z,4.89
2023-02-12T05:08:57.580Z,4.87
2023-02-12T05:11:24.565Z,4.91
2023-02-12T05:13:53.202Z,4.88
2023-02-12T05:16:21.339Z,4.85
2023-02-12T05:18:48.568Z,4.87
2023-02-12T05:21:15.690Z,4.89
2023-02-12T05:23:42.792Z,4.91
2023-02-12T05:26:16.097Z,4.89
2023-02-12T05:28:43.046Z,4.87
2023-02-12T05:31:13.631Z,4.79
2023-02-12T05:33:45.459Z,4.78
2023-02-12T05:36:15.523Z,4.79
2023-02-12T05:38:42.419Z,4.81
2023-02-12T05:41:18.992Z,4.77
2023-02-12T05:43:48.489Z,4.79
2023-02-12T05:46:17.621Z,4.78
2023-02-12T05:48:44.387Z,4.79
2023-02-12T05:51:14.860Z,4.81
2023-02-12T05:53:42.657Z,4.80
2023-02-12T05:56:11.097Z,4.82
2023-02-12T05:58:37.829Z,4.83
2023-02-12T06:01:10.762Z,4.81
2023-02-12T06:03:37.958Z,4.81
2023-02-12T06:06:04.889Z,4.81
2023-02-12T06:08:31.631Z,4.78
2023-02-12T06:11:03.842Z,4.77
2023-02-12T06:13:31.302Z,4.74
2023-02-12T06:15:59.552Z,4.74
2023-02-12T06:18:27.115Z,4.77
2023-02-12T06:20:56.817Z,4.77
2023-02-12T06:23:24.516Z,4.79
2023-02-12T06:25:55.930Z,4.80
2023-02-12T06:28:23.138Z,4.80
2023-02-12T06:30:49.994Z,4.78
2023-02-12T06:33:16.752Z,4.75
2023-02-12T06:35:43.461Z,4.73
2023-02-12T06:38:10.301Z,4.77
2023-02-12T06:40:37.022Z,4.77
2023-02-12T06:43:03.987Z,4.79
2023-02-12T06:45:30.969Z,4.79
2023-02-12T06:47:57.710Z,4.79
2023-02-12T06:50:24.774Z,4.77
2023-02-12T06:52:51.631Z,4.79
2023-02-12T06:55:18.503Z,4.83
2023-02-12T06:57:45.289Z,4.85
2023-02-12T07:00:12.518Z,4.89
2023-02-12T07:02:39.325Z,4.95
2023-02-12T07:05:06.203Z,4.97
2023-02-12T07:07:33.623Z,5.01
2023-02-12T07:10:00.414Z,5.04
2023-02-12T07:12:27.199Z,5.04
2023-02-12T07:14:53.919Z,5.06
2023-02-12T07:17:20.700Z,5.08
2023-02-12T07:19:47.369Z,5.11
2023-02-12T07:22:14.147Z,5.15
2023-02-12T07:24:40.883Z,5.15
2023-02-12T07:27:07.539Z,5.13
2023-02-12T07:29:34.379Z,5.17
2023-02-12T07:32:01.164Z,5.18
2023-02-12T07:34:27.925Z,5.22
2023-02-12T07:36:54.634Z,5.22
2023-02-12T07:39:21.463Z,5.23
2023-02-12T07:41:51.311Z,5.23
2023-02-12T07:44:19.889Z,5.26
2023-02-12T07:46:49.007Z,5.32
2023-02-12T07:49:18.140Z,5.31
2023-02-12T07:51:45.325Z,5.33
2023-02-12T07:54:12.300Z,5.33
2023-02-12T07:56:40.610Z,5.35
2023-02-12T07:59:13.207Z,5.40
2023-02-12T08:01:43.004Z,5.41
2023-02-12T08:04:13.376Z,5.43
2023-02-12T08:06:42.825Z,5.47
2023-02-12T08:09:11.926Z,5.47
2023-02-12T08:11:39.953Z,5.52
2023-02-12T08:14:08.371Z,5.57
2023-02-12T08:16:40.434Z,5.60
2023-02-12T08:19:17.828Z,5.66
2023-02-12T08:21:50.185Z,5.70
2023-02-12T08:24:16.995Z,5.75
2023-02-12T08:26:45.421Z,5.76
2023-02-12T08:29:15.860Z,5.80
2023-02-12T08:31:45.784Z,5.85
2023-02-12T08:34:23.976Z,5.93
2023-02-12T08:36:53.948Z,6.00
2023-02-12T08:39:21.300Z,6.06
2023-02-12T08:41:48.659Z,6.14
2023-02-12T08:44:16.463Z,6.13
2023-02-12T08:46:46.806Z,6.22
2023-02-12T08:49:19.352Z,6.36
2023-02-12T08:51:50.349Z,6.48
2023-02-12T08:54:22.378Z,6.61
2023-02-12T08:56:49.621Z,6.61
2023-02-12T08:59:17.452Z,6.64
2023-02-12T09:01:45.219Z,6.67
2023-02-12T09:04:17.801Z,6.67
2023-02-12T09:06:45.923Z,6.70
2023-02-12T09:09:14.173Z,6.74
2023-02-12T09:11:41.583Z,6.75
2023-02-12T09:14:12.204Z,6.79
2023-02-12T09:16:40.520Z,6.86
2023-02-12T09:19:09.060Z,6.93
2023-02-12T09:21:35.773Z,6.92
2023-02-12T09:24:03.829Z,6.90
2023-02-12T09:26:31.155Z,6.93
2023-02-12T09:28:58.291Z,6.95
2023-02-12T09:31:30.303Z,7.02
2023-02-12T09:34:03.878Z,7.06
2023-02-12T09:36:31.898Z,7.07
2023-02-12T09:38:59.778Z,7.12
2023-02-12T09:41:59.562Z,7.16
2023-02-12T09:44:26.552Z,7.18
2023-02-12T09:47:11.339Z,7.17
2023-02-12T09:50:10.936Z,7.17
2023-02-12T09:52:38.000Z,7.20
2023-02-12T09:55:05.427Z,7.18
2023-02-12T09:57:36.128Z,7.19
2023-02-12T10:00:07.158Z,7.21
2023-02-12T10:02:37.817Z,7.27
2023-02-12T10:05:06.661Z,7.31
2023-02-12T10:07:39.640Z,7.30
2023-02-12T10:10:20.081Z,7.36
2023-02-12T10:12:53.183Z,7.41
2023-02-12T10:15:35.132Z,7.45
2023-02-12T10:18:20.311Z,7.47
2023-02-12T10:21:02.301Z,7.52
2023-02-12T10:23:48.519Z,7.56
2023-02-12T10:26:22.825Z,7.63
2023-02-12T10:28:49.856Z,7.70
2023-02-12T10:31:31.038Z,7.79
2023-02-12T10:33:58.878Z,7.84
2023-02-12T10:36:37.192Z,7.89
2023-02-12T10:39:16.113Z,7.94
2023-02-12T10:42:06.068Z,7.93
2023-02-12T10:44:32.921Z,7.91
2023-02-12T10:46:59.746Z,7.98
2023-02-12T10:49:28.838Z,8.02
2023-02-12T10:52:02.280Z,8.05
2023-02-12T10:54:33.834Z,8.08
2023-02-12T10:57:20.837Z,8.09
2023-02-12T10:59:50.594Z,8.09
2023-02-12T11:02:26.689Z,8.08
2023-02-12T11:04:55.297Z,8.11
2023-02-12T11:07:23.039Z,8.15
2023-02-12T11:09:52.251Z,8.22
2023-02-12T11:12:28.692Z,8.26
2023-02-12T11:14:58.684Z,8.23
2023-02-12T11:17:43.191Z,8.18
2023-02-12T11:20:16.129Z,8.17
2023-02-12T11:22:55.202Z,8.17
2023-02-12T11:25:23.639Z,8.18
2023-02-12T11:28:17.978Z,8.18
2023-02-12T11:31:14.103Z,8.19
2023-02-12T11:33:40.941Z,8.14
2023-02-12T11:36:25.595Z,8.17
2023-02-12T11:38:55.492Z,8.23
2023-02-12T11:41:31.185Z,8.29
2023-02-12T11:43:58.443Z,8.25
2023-02-12T11:46:27.557Z,8.30
2023-02-12T11:48:56.807Z,8.29
2023-02-12T11:51:29.957Z,8.32
2023-02-12T11:54:03.071Z,8.28
2023-02-12T11:56:46.777Z,8.43
2023-02-12T11:59:40.870Z,8.49
2023-02-12T12:02:26.012Z,8.49
2023-02-12T12:04:58.052Z,8.63
2023-02-12T12:07:31.534Z,8.66
2023-02-12T12:10:04.111Z,8.68
2023-02-12T12:12:55.631Z,8.66
2023-02-12T12:15:47.195Z,8.67
2023-02-12T12:18:52.443Z,8.71
2023-02-12T12:21:28.146Z,9.38
2023-02-12T12:24:03.142Z,10.12
2023-02-12T12:26:34.371Z,10.16
2023-02-12T12:29:07.263Z,10.07
2023-02-12T12:31:44.085Z,10.22
2023-02-12T12:34:16.908Z,10.41
2023-02-12T12:36:55.991Z,10.40
2023-02-12T12:39:29.069Z,10.53
2023-02-12T12:42:07.988Z,10.83
2023-02-12T12:44:51.189Z,11.63
2023-02-12T12:47:41.144Z,12.30
2023-02-12T12:50:43.311Z,12.88
2023-02-12T12:53:38.068Z,13.53
2023-02-12T12:56:10.533Z,13.63
2023-02-12T12:58:49.502Z,13.76
2023-02-12T13:01:46.974Z,13.93
2023-02-12T13:04:26.620Z,13.98
2023-02-12T13:07:32.722Z,14.11
2023-02-12T13:10:14.871Z,14.18
2023-02-12T13:12:52.744Z,14.18
2023-02-12T13:15:51.229Z,14.09
2023-02-12T13:18:28.904Z,13.99
2023-02-12T13:21:05.936Z,13.86
2023-02-12T13:23:58.672Z,14.18
2023-02-12T13:26:40.598Z,14.33
2023-02-12T13:29:17.042Z,14.56
2023-02-12T13:32:25.738Z,14.63
2023-02-12T13:34:55.176Z,14.72
2023-02-12T13:37:51.314Z,14.69
2023-02-12T13:40:26.928Z,14.77
2023-02-12T13:43:15.285Z,14.79
2023-02-12T13:46:06.867Z,14.67
2023-02-12T13:49:01.358Z,14.82
2023-02-12T13:51:43.822Z,15.01
2023-02-12T13:54:25.708Z,14.95
2023-02-12T13:56:56.440Z,14.98
2023-02-12T13:59:32.757Z,15.04
2023-02-12T14:02:18.337Z,15.05
2023-02-12T14:05:14.592Z,14.57
2023-02-12T14:07:44.476Z,14.52
2023-02-12T14:10:22.281Z,14.29
2023-02-12T14:12:49.945Z,14.17
2023-02-12T14:15:22.817Z,13.89
2023-02-12T14:18:04.816Z,13.59
2023-02-12T14:20:34.510Z,12.92
2023-02-12T14:23:03.075Z,12.17
2023-02-12T14:25:40.368Z,11.78
2023-02-12T14:28:34.508Z,11.58
2023-02-12T14:31:20.334Z,11.43
2023-02-12T14:33:51.296Z,11.32
2023-02-12T14:36:33.446Z,11.16
2023-02-12T14:39:06.233Z,11.12
2023-02-12T14:41:38.109Z,11.06
2023-02-12T14:44:27.334Z,10.86
2023-02-12T14:46:55.822Z,10.76
2023-02-12T14:49:38.373Z,10.73
2023-02-12T14:52:11.754Z,10.69
2023-02-12T14:54:49.600Z,10.60
2023-02-12T14:57:34.958Z,10.50
2023-02-12T15:00:17.047Z,10.46
2023-02-12T15:03:07.633Z,10.38
2023-02-12T15:05:47.154Z,10.33
2023-02-12T15:08:51.574Z,10.27
2023-02-12T15:11:33.700Z,10.21
2023-02-12T15:14:06.283Z,10.16
2023-02-12T15:16:49.994Z,10.17
2023-02-12T15:19:57.286Z,10.07
2023-02-12T15:22:31.543Z,10.00
2023-02-12T15:25:29.381Z,9.95
2023-02-12T15:28:20.648Z,9.90
2023-02-12T15:30:47.663Z,9.86
2023-02-12T15:33:32.415Z,9.82
2023-02-12T15:36:01.802Z,9.79
2023-02-12T15:38:34.929Z,9.74
2023-02-12T15:41:04.439Z,9.69
2023-02-12T15:43:39.170Z,9.69
2023-02-12T15:46:15.174Z,9.63
2023-02-12T15:48:42.651Z,9.58
2023-02-12T15:51:27.092Z,9.55
2023-02-12T15:53:54.387Z,9.53
2023-02-12T15:56:25.194Z,9.49
2023-02-12T15:58:56.305Z,9.45
2023-02-12T16:01:29.800Z,9.41
2023-02-12T16:04:03.145Z,9.39
2023-02-12T16:06:34.489Z,9.36
2023-02-12T16:09:16.830Z,9.33
2023-02-12T16:11:47.663Z,9.28
2023-02-12T16:14:47.713Z,9.18
2023-02-12T16:17:27.383Z,9.14
2023-02-12T16:20:15.679Z,9.12
2023-02-12T16:22:47.278Z,9.06
2023-02-12T16:25:27.715Z,8.99
2023-02-12T16:28:23.905Z,8.91
2023-02-12T16:30:53.142Z,8.87
2023-02-12T16:33:43.151Z,8.84
2023-02-12T16:36:31.905Z,8.81
2023-02-12T16:39:06.409Z,8.77
2023-02-12T16:41:55.654Z,8.73
2023-02-12T16:44:27.289Z,8.68
2023-02-12T16:46:59.180Z,8.63
2023-02-12T16:49:27.915Z,8.56
2023-02-12T16:52:28.460Z,8.47
2023-02-12T16:54:55.359Z,8.41
2023-02-12T16:57:22.258Z,8.27
2023-02-12T16:59:49.455Z,8.13
2023-02-12T17:02:16.520Z,8.06
2023-02-12T17:04:43.813Z,8.01
2023-02-12T17:07:28.410Z,7.94
2023-02-12T17:09:55.355Z,7.85
2023-02-12T17:12:25.568Z,7.76
2023-02-12T17:14:52.613Z,7.67
2023-02-12T17:17:19.628Z,7.55
2023-02-12T17:19:47.056Z,7.52
2023-02-12T17:22:21.813Z,7.50
2023-02-12T17:24:51.714Z,7.43
2023-02-12T17:27:19.383Z,7.33
2023-02-12T17:29:46.582Z,7.24
2023-02-12T17:32:13.661Z,7.17
2023-02-12T17:34:48.320Z,7.14
2023-02-12T17:37:18.044Z,7.11
2023-02-12T17:39:45.350Z,7.03
2023-02-12T17:42:12.377Z,7.00
2023-02-12T17:44:40.100Z,6.95
2023-02-12T17:47:07.108Z,6.93
2023-02-12T17:49:35.436Z,6.88
2023-02-12T17:52:04.773Z,6.83
2023-02-12T17:54:33.603Z,6.75
2023-02-12T17:57:00.666Z,6.66
2023-02-12T17:59:28.040Z,6.58
2023-02-12T18:01:55.576Z,6.51
2023-02-12T18:04:22.540Z,6.44
2023-02-12T18:06:49.725Z,6.44
2023-02-12T18:09:17.050Z,6.47
2023-02-12T18:11:44.150Z,6.40
2023-02-12T18:14:12.231Z,6.34
2023-02-12T18:16:42.716Z,6.28
2023-02-12T18:19:09.598Z,6.24
2023-02-12T18:21:37.094Z,6.23
2023-02-12T18:24:04.932Z,6.23
2023-02-12T18:26:32.731Z,6.21
2023-02-12T18:29:01.526Z,6.16
2023-02-12T18:31:29.864Z,6.09
2023-02-12T18:33:57.091Z,5.97
2023-02-12T18:36:24.247Z,5.94
2023-02-12T18:38:52.472Z,5.87
2023-02-12T18:41:26.353Z,5.83
2023-02-12T18:43:54.818Z,5.71
2023-02-12T18:46:25.905Z,5.75
2023-02-12T18:48:53.619Z,5.76
2023-02-12T18:51:24.457Z,5.69
2023-02-12T18:54:05.920Z,5.54
2023-02-12T18:56:37.267Z,5.43
2023-02-12T18:59:05.639Z,5.36
2023-02-12T19:01:34.706Z,5.34
2023-02-12T19:04:04.843Z,5.32
2023-02-12T19:06:34.133Z,5.23
2023-02-12T19:09:03.796Z,5.22
2023-02-12T19:11:32.025Z,5.17
2023-02-12T19:13:59.319Z,5.18
2023-02-12T19:16:26.835Z,5.20
2023-02-12T19:18:58.979Z,5.16
2023-02-12T19:21:26.500Z,5.13
2023-02-12T19:23:59.392Z,5.15
2023-02-12T19:26:28.802Z,5.12
2023-02-12T19:28:57.163Z,5.16
2023-02-12T19:31:29.128Z,5.13
2023-02-12T19:34:01.151Z,5.07
2023-02-12T19:36:32.914Z,5.09
2023-02-12T19:39:00.345Z,5.07
2023-02-12T19:41:30.013Z,5.02
2023-02-12T19:44:00.085Z,4.95
2023-02-12T19:46:30.815Z,4.93
2023-02-12T19:49:02.766Z,4.93
2023-02-12T19:51:31.326Z,4.87
2023-02-12T19:54:04.690Z,4.86
2023-02-12T19:56:31.845Z,4.86
2023-02-12T19:58:58.695Z,4.83
2023-02-12T20:01:27.171Z,4.76
2023-02-12T20:03:55.137Z,4.65
2023-02-12T20:06:30.286Z,4.67
2023-02-12T20:08:57.358Z,4.61
2023-02-12T20:11:28.935Z,4.50
2023-02-12T20:13:56.677Z,4.57
2023-02-12T20:16:27.339Z,4.53
2023-02-12T20:18:54.960Z,4.40
2023-02-12T20:21:28.200Z,4.38
2023-02-12T20:23:56.522Z,4.38
2023-02-12T20:26:25.121Z,4.32
2023-02-12T20:28:52.448Z,4.36
2023-02-12T20:31:25.822Z,4.29
2023-02-12T20:34:02.473Z,4.17
2023-02-12T20:36:36.684Z,4.13
2023-02-12T20:39:06.861Z,4.06
2023-02-12T20:41:36.932Z,3.95
2023-02-12T20:44:12.233Z,3.90
2023-02-12T20:46:42.533Z,3.83
2023-02-12T20:49:14.194Z,3.85
2023-02-12T20:51:41.547Z,3.83
2023-02-12T20:54:08.768Z,3.75
2023-02-12T20:56:37.037Z,3.69
2023-02-12T20:59:06.482Z,3.63
2023-02-12T21:01:37.778Z,3.62
2023-02-12T21:04:17.645Z,3.54
2023-02-12T21:06:44.766Z,3.49
2023-02-12T21:09:14.113Z,3.48
2023-02-12T21:11:45.067Z,3.45
2023-02-12T21:14:23.674Z,3.39
2023-02-12T21:16:53.837Z,3.22
2023-02-12T21:19:21.698Z,3.16
2023-02-12T21:21:48.748Z,3.11
2023-02-12T21:24:24.500Z,3.10
2023-02-12T21:26:52.831Z,3.17
2023-02-12T21:29:20.044Z,3.25
2023-02-12T21:31:49.181Z,3.28
2023-02-12T21:34:19.415Z,3.40
2023-02-12T21:36:47.601Z,3.45
2023-02-12T21:39:24.700Z,3.42
2023-02-12T21:41:54.199Z,3.40
2023-02-12T21:44:22.830Z,3.34
2023-02-12T21:46:49.871Z,3.29
2023-02-12T21:49:24.631Z,3.15
2023-02-12T21:51:53.414Z,3.19
2023-02-12T21:54:20.959Z,3.20
2023-02-12T21:56:49.171Z,3.23
2023-02-12T21:59:17.022Z,3.21
2023-02-12T22:01:50.419Z,3.24
2023-02-12T22:04:18.439Z,3.30
2023-02-12T22:06:47.152Z,3.35
2023-02-12T22:09:15.617Z,3.45
2023-02-12T22:11:43.285Z,3.49
2023-02-12T22:14:13.818Z,3.51
2023-02-12T22:16:41.018Z,3.48
2023-02-12T22:19:08.996Z,3.50
2023-02-12T22:21:40.132Z,3.39
2023-02-12T22:24:09.341Z,3.30
2023-02-12T22:26:36.490Z,3.30
2023-02-12T22:29:09.479Z,3.31
2023-02-12T22:31:38.743Z,3.30
2023-02-12T22:34:10.796Z,3.24
2023-02-12T22:36:39.058Z,3.20
2023-02-12T22:39:06.276Z,3.16
2023-02-12T22:41:33.473Z,3.19
2023-02-12T22:44:01.758Z,3.21
2023-02-12T22:46:28.756Z,3.22
2023-02-12T22:48:56.070Z,3.18
2023-02-12T22:51:29.045Z,3.16
2023-02-12T22:53:56.414Z,3.13
2023-02-12T22:56:24.029Z,3.01
2023-02-12T22:58:59.939Z,3.03
2023-02-12T23:01:28.024Z,2.96
2023-02-12T23:03:55.510Z,2.86
2023-02-12T23:06:29.136Z,2.78
2023-02-12T23:08:59.078Z,2.70
2023-02-12T23:11:28.055Z,2.66
2023-02-12T23:13:55.253Z,2.64
2023-02-12T23:16:22.243Z,2.63
2023-02-12T23:18:49.027Z,2.68
2023-02-12T23:21:16.898Z,2.72
2023-02-12T23:23:43.611Z,2.74
2023-02-12T23:26:11.420Z,2.84
2023-02-12T23:28:38.184Z,2.88
2023-02-12T23:31:04.999Z,2.92
2023-02-12T23:33:32.050Z,2.93
2023-02-12T23:35:58.958Z,2.97
2023-02-12T23:38:25.708Z,2.96
2023-02-12T23:40:52.529Z,2.94
2023-02-12T23:43:19.267Z,2.93
2023-02-12T23:45:46.743Z,2.97
2023-02-12T23:48:13.998Z,2.96
2023-02-12T23:50:41.054Z,2.93
2023-02-12T23:53:09.967Z,2.94
2023-02-12T23:55:37.800Z,2.97
2023-02-12T23:58:05.640Z,2.98
